Time;durP1;ratioP1;P1;durP2;ratioP2;P2;SDS_P1;SDS_P2;PMS_P1;PMS_P2;Temp;Humidity;BMP_temperature;BMP_pressure;BME280_temperature;BME280_humidity;BME280_pressure;Samples;Min_cycle;Max_cycle;Signal;HPM_P1;HPM_P2
2022/10/27 00:02:15;;;;;;;0.10;0.10;;;11.80;99.90;;;;;;5062236;28;20196;-79
2022/10/27 00:04:41;;;;;;;0.10;0.10;;;11.70;99.90;;;;;;5064642;28;20216;-78
2022/10/27 00:07:07;;;;;;;0.10;0.10;;;11.80;99.90;;;;;;5064958;28;20185;-78
2022/10/27 00:09:32;;;;;;;0.10;0.10;;;11.90;99.90;;;;;;5066150;28;20650;-78
2022/10/27 00:11:58;;;;;;;0.10;0.10;;;12.00;99.90;;;;;;5061394;28;20888;-79
2022/10/27 00:14:23;;;;;;;0.10;0.10;;;12.00;99.90;;;;;;5064317;28;20539;-79
2022/10/27 00:16:54;;;;;;;0.10;0.10;;;12.10;99.90;;;;;;5078894;28;20181;-78
2022/10/27 00:19:23;;;;;;;0.00;0.00;;;12.20;99.90;;;;;;5063469;28;20603;-79
2022/10/27 00:21:50;;;;;;;0.10;0.10;;;12.30;99.90;;;;;;5063624;28;20211;-79
2022/10/27 00:24:17;;;;;;;0.10;0.10;;;12.40;99.90;;;;;;5061284;28;20212;-78
2022/10/27 00:26:42;;;;;;;0.10;0.10;;;12.40;99.90;;;;;;5061128;28;20193;-79
2022/10/27 00:29:08;;;;;;;0.10;0.10;;;12.40;99.90;;;;;;5065228;28;20467;-78
2022/10/27 00:31:33;;;;;;;0.10;0.10;;;12.30;99.90;;;;;;5065438;28;20272;-79
2022/10/27 00:33:59;;;;;;;0.10;0.10;;;12.10;99.90;;;;;;5065882;28;20181;-79
2022/10/27 00:36:25;;;;;;;0.10;0.10;;;12.00;99.90;;;;;;5065616;28;21318;-79
2022/10/27 00:38:55;;;;;;;0.10;0.10;;;12.00;99.90;;;;;;5065655;28;20181;-78
2022/10/27 00:41:36;;;;;;;0.10;0.10;;;12.10;99.90;;;;;;5063296;28;20188;-78
2022/10/27 00:44:30;;;;;;;0.00;0.00;;;12.10;99.90;;;;;;5064904;28;20269;-79
2022/10/27 00:47:04;;;;;;;0.10;0.10;;;12.00;99.90;;;;;;5065537;28;20230;-79
2022/10/27 00:49:37;;;;;;;0.10;0.10;;;11.80;99.90;;;;;;5065845;28;20239;-79
2022/10/27 00:52:12;;;;;;;0.10;0.10;;;11.60;99.90;;;;;;5066227;28;20223;-78
2022/10/27 00:54:40;;;;;;;0.10;0.10;;;11.50;99.90;;;;;;5072937;28;20200;-79
2022/10/27 00:57:07;;;;;;;0.10;0.10;;;11.40;99.90;;;;;;5052591;28;20218;-79
2022/10/27 00:59:35;;;;;;;0.10;0.10;;;11.40;99.90;;;;;;5063748;28;20193;-78
2022/10/27 01:02:01;;;;;;;0.00;0.00;;;11.40;99.90;;;;;;5065135;28;20651;-79
2022/10/27 01:04:44;;;;;;;0.00;0.00;;;11.40;99.90;;;;;;5079481;28;20211;-79
2022/10/27 01:07:13;;;;;;;0.00;0.00;;;11.40;99.90;;;;;;5064343;28;20224;-79
2022/10/27 01:09:40;;;;;;;0.03;0.03;;;11.50;99.90;;;;;;5063031;28;21247;-79
2022/10/27 01:12:05;;;;;;;0.00;0.00;;;11.50;99.90;;;;;;5064059;28;20208;-78
2022/10/27 01:14:31;;;;;;;0.00;0.00;;;11.50;99.90;;;;;;5063182;28;20345;-79
2022/10/27 01:17:10;;;;;;;0.10;0.10;;;11.60;99.90;;;;;;5064863;28;20627;-79
2022/10/27 01:19:50;;;;;;;0.10;0.10;;;11.70;99.90;;;;;;5072576;28;20185;-78
2022/10/27 01:22:22;;;;;;;0.10;0.10;;;11.80;99.90;;;;;;5070564;28;20239;-78
2022/10/27 01:25:09;;;;;;;0.10;0.10;;;11.90;99.90;;;;;;5072165;28;20216;-79
2022/10/27 01:27:40;;;;;;;0.10;0.10;;;11.90;99.90;;;;;;5071632;28;20189;-79
2022/10/27 01:30:10;;;;;;;0.00;0.00;;;12.00;99.90;;;;;;5072222;28;20192;-78
2022/10/27 01:33:08;;;;;;;0.10;0.10;;;12.10;99.90;;;;;;5064245;28;20223;-78
2022/10/27 01:36:03;;;;;;;0.10;0.10;;;12.20;99.90;;;;;;5058777;28;20822;-79
2022/10/27 01:38:33;;;;;;;0.10;0.10;;;12.20;99.90;;;;;;5065295;28;20184;-79
2022/10/27 01:41:16;;;;;;;0.00;0.00;;;12.20;99.90;;;;;;5063821;28;20542;-79
2022/10/27 01:43:44;;;;;;;0.10;0.10;;;12.20;99.90;;;;;;5063924;28;20208;-79
2022/10/27 01:46:10;;;;;;;0.10;0.10;;;12.10;99.90;;;;;;5062621;28;20190;-79
2022/10/27 01:48:37;;;;;;;0.10;0.10;;;12.10;99.90;;;;;;5064662;28;20767;-79
2022/10/27 01:51:05;;;;;;;0.10;0.10;;;12.20;99.90;;;;;;5065558;28;20591;-78
2022/10/27 01:53:36;;;;;;;0.00;0.00;;;12.10;99.90;;;;;;5064757;28;20672;-79
2022/10/27 01:56:11;;;;;;;0.10;0.10;;;12.00;99.90;;;;;;5078123;28;20192;-79
2022/10/27 01:59:12;;;;;;;0.00;0.00;;;11.90;99.90;;;;;;5069406;28;21028;-79
2022/10/27 02:02:03;;;;;;;0.10;0.10;;;11.80;99.90;;;;;;5078850;28;20208;-79
2022/10/27 02:04:58;;;;;;;0.10;0.10;;;11.80;99.90;;;;;;5075948;28;20821;-78
2022/10/27 02:07:47;;;;;;;0.10;0.10;;;11.80;99.90;;;;;;5067035;28;20185;-79
2022/10/27 02:10:18;;;;;;;0.10;0.10;;;11.70;99.90;;;;;;5068307;28;20173;-78
2022/10/27 02:12:45;;;;;;;0.10;0.10;;;11.80;99.90;;;;;;5067789;28;20208;-79
2022/10/27 02:15:39;;;;;;;0.10;0.10;;;11.70;99.90;;;;;;5068673;28;20242;-79
2022/10/27 02:18:09;;;;;;;0.10;0.10;;;11.80;99.90;;;;;;5081530;28;20208;-79
2022/10/27 02:20:41;;;;;;;0.10;0.10;;;11.70;99.90;;;;;;5079629;28;20406;-79
2022/10/27 02:23:11;;;;;;;0.00;0.00;;;11.70;99.90;;;;;;5071425;28;20212;-79
2022/10/27 02:25:48;;;;;;;0.10;0.10;;;11.60;99.90;;;;;;5069103;28;20177;-79
2022/10/27 02:28:17;;;;;;;0.10;0.10;;;11.50;99.90;;;;;;5064672;28;20177;-79
2022/10/27 02:30:43;;;;;;;0.00;0.00;;;11.40;99.90;;;;;;5065458;28;20193;-79
2022/10/27 02:33:09;;;;;;;0.07;0.07;;;11.30;99.90;;;;;;5065739;28;20754;-78
2022/10/27 02:35:35;;;;;;;0.10;0.10;;;11.30;99.90;;;;;;5065676;28;20223;-79
2022/10/27 02:38:01;;;;;;;0.00;0.00;;;11.20;99.90;;;;;;5063403;28;20649;-78
2022/10/27 02:40:26;;;;;;;0.00;0.00;;;11.20;99.90;;;;;;5067382;28;20196;-79
2022/10/27 02:42:52;;;;;;;0.10;0.10;;;11.20;99.90;;;;;;5067622;28;20193;-79
2022/10/27 02:45:18;;;;;;;0.10;0.10;;;11.20;99.90;;;;;;5067893;28;20526;-78
2022/10/27 02:47:44;;;;;;;0.10;0.10;;;11.00;99.90;;;;;;5068686;28;20770;-80
2022/10/27 02:50:10;;;;;;;0.10;0.10;;;11.00;99.90;;;;;;5067409;28;20181;-79
2022/10/27 02:52:35;;;;;;;0.10;0.10;;;10.90;99.90;;;;;;5076195;28;20211;-79
2022/10/27 02:55:01;;;;;;;0.00;0.00;;;10.90;99.90;;;;;;5067250;28;20187;-79
2022/10/27 02:57:26;;;;;;;0.10;0.10;;;11.00;99.90;;;;;;5067202;28;20280;-79
2022/10/27 02:59:52;;;;;;;0.10;0.10;;;11.00;99.90;;;;;;5077340;28;20178;-79
2022/10/27 03:02:17;;;;;;;0.10;0.10;;;11.00;99.90;;;;;;5066174;28;20235;-79
2022/10/27 03:04:43;;;;;;;0.00;0.00;;;11.00;99.90;;;;;;5067378;28;20259;-79
2022/10/27 03:07:08;;;;;;;0.00;0.00;;;11.10;99.90;;;;;;5065201;28;20183;-79
2022/10/27 03:09:34;;;;;;;0.00;0.00;;;11.20;99.90;;;;;;5068942;28;20189;-79
2022/10/27 03:11:59;;;;;;;0.10;0.10;;;11.20;99.90;;;;;;5066754;28;20196;-79
2022/10/27 03:14:25;;;;;;;0.10;0.10;;;11.20;99.90;;;;;;5069162;28;20287;-79
2022/10/27 03:16:50;;;;;;;0.10;0.10;;;11.20;99.90;;;;;;5065708;28;20223;-79
2022/10/27 03:19:16;;;;;;;0.10;0.10;;;11.10;99.90;;;;;;5067422;28;20187;-79
2022/10/27 03:21:41;;;;;;;0.10;0.10;;;11.10;99.90;;;;;;5067444;28;20220;-79
2022/10/27 03:24:07;;;;;;;0.03;0.03;;;11.10;99.90;;;;;;5066437;28;20212;-79
2022/10/27 03:26:32;;;;;;;0.10;0.10;;;11.20;99.90;;;;;;5066140;28;20216;-79
2022/10/27 03:28:58;;;;;;;0.10;0.10;;;11.20;99.90;;;;;;5067423;28;20184;-79
2022/10/27 03:31:24;;;;;;;0.10;0.10;;;11.30;99.90;;;;;;5068769;28;20215;-79
2022/10/27 03:33:49;;;;;;;0.10;0.10;;;11.30;99.90;;;;;;5065700;28;20203;-78
2022/10/27 03:36:15;;;;;;;0.10;0.10;;;11.30;99.90;;;;;;5067445;28;20185;-79
2022/10/27 03:38:40;;;;;;;0.10;0.10;;;11.40;99.90;;;;;;5065896;28;20196;-78
2022/10/27 03:41:06;;;;;;;0.10;0.10;;;11.40;99.90;;;;;;5064136;28;20183;-79
2022/10/27 03:43:31;;;;;;;0.10;0.10;;;11.50;99.90;;;;;;5062174;28;20212;-79
2022/10/27 03:45:57;;;;;;;0.07;0.07;;;11.50;99.90;;;;;;5066523;28;20177;-79
2022/10/27 03:48:22;;;;;;;0.10;0.10;;;11.30;99.90;;;;;;5064282;28;20180;-77
2022/10/27 03:50:49;;;;;;;0.00;0.00;;;11.20;99.90;;;;;;5065497;28;20643;-79
2022/10/27 03:53:16;;;;;;;0.10;0.10;;;11.30;99.90;;;;;;5065658;28;20273;-79
2022/10/27 03:55:41;;;;;;;0.00;0.00;;;11.30;99.90;;;;;;5068128;28;20194;-78
2022/10/27 03:58:14;;;;;;;0.10;0.10;;;11.30;99.90;;;;;;5065489;28;20739;-79
2022/10/27 04:00:40;;;;;;;0.10;0.10;;;11.40;99.90;;;;;;5067978;28;20511;-79
2022/10/27 04:03:06;;;;;;;0.10;0.10;;;11.30;99.90;;;;;;5063803;28;20715;-79
2022/10/27 04:05:32;;;;;;;0.10;0.10;;;11.30;99.90;;;;;;5063533;28;20256;-79
2022/10/27 04:07:58;;;;;;;0.10;0.10;;;11.30;99.90;;;;;;5066697;28;20314;-79
2022/10/27 04:10:24;;;;;;;0.10;0.10;;;11.30;99.90;;;;;;5064902;28;20185;-78
2022/10/27 04:12:51;;;;;;;0.10;0.10;;;11.30;99.90;;;;;;5074014;28;20200;-79
2022/10/27 04:15:18;;;;;;;0.10;0.10;;;11.30;99.90;;;;;;5063729;28;20181;-79
2022/10/27 04:17:45;;;;;;;0.10;0.10;;;11.30;99.90;;;;;;5064941;28;20181;-79
2022/10/27 04:20:11;;;;;;;0.10;0.10;;;11.30;99.90;;;;;;5064112;28;20254;-79
2022/10/27 04:22:37;;;;;;;0.10;0.10;;;11.20;99.90;;;;;;5065389;28;20211;-79
2022/10/27 04:25:03;;;;;;;0.10;0.10;;;11.20;99.90;;;;;;5063588;28;20205;-79
2022/10/27 04:27:28;;;;;;;0.10;0.10;;;11.20;99.90;;;;;;5065282;28;20960;-78
2022/10/27 04:29:54;;;;;;;0.10;0.10;;;11.30;99.90;;;;;;5065177;28;20234;-78
2022/10/27 04:32:19;;;;;;;0.10;0.10;;;11.30;99.90;;;;;;5064815;28;20693;-79
2022/10/27 04:34:45;;;;;;;0.10;0.10;;;11.30;99.90;;;;;;5064462;28;20686;-79
2022/10/27 04:37:11;;;;;;;0.10;0.10;;;11.30;99.90;;;;;;5066207;28;20178;-79
2022/10/27 04:39:37;;;;;;;0.00;0.00;;;11.30;99.90;;;;;;5065260;28;20180;-79
2022/10/27 04:42:02;;;;;;;0.10;0.10;;;11.30;99.90;;;;;;5068195;28;20206;-79
2022/10/27 04:44:28;;;;;;;0.00;0.00;;;11.30;99.90;;;;;;5064173;28;20711;-78
2022/10/27 04:46:54;;;;;;;0.00;0.00;;;11.10;99.90;;;;;;5065151;28;20237;-79
2022/10/27 04:49:19;;;;;;;0.10;0.10;;;11.00;99.90;;;;;;5064025;28;20212;-79
2022/10/27 04:51:45;;;;;;;0.10;0.10;;;10.80;99.90;;;;;;5066274;28;20730;-79
2022/10/27 04:54:10;;;;;;;0.00;0.00;;;10.70;99.90;;;;;;5061375;28;20196;-79
2022/10/27 04:56:36;;;;;;;0.07;0.07;;;10.60;99.90;;;;;;5064414;28;20252;-79
2022/10/27 04:59:01;;;;;;;0.10;0.10;;;10.50;99.90;;;;;;5064668;28;20605;-79
2022/10/27 05:01:27;;;;;;;0.10;0.10;;;10.50;99.90;;;;;;5064522;28;20278;-79
2022/10/27 05:03:53;;;;;;;0.10;0.10;;;10.40;99.90;;;;;;5064505;28;20239;-78
2022/10/27 05:06:18;;;;;;;0.10;0.10;;;10.40;99.90;;;;;;5065256;28;20658;-78
2022/10/27 05:08:44;;;;;;;0.00;0.00;;;10.40;99.90;;;;;;5064375;28;20267;-79
2022/10/27 05:11:10;;;;;;;0.00;0.00;;;10.50;99.90;;;;;;5064920;28;20184;-79
2022/10/27 05:13:35;;;;;;;0.00;0.00;;;10.50;99.90;;;;;;5062485;28;20739;-79
2022/10/27 05:16:02;;;;;;;0.10;0.10;;;10.60;99.90;;;;;;5064662;28;20192;-79
2022/10/27 05:18:29;;;;;;;0.10;0.10;;;10.70;99.90;;;;;;5065694;28;20196;-79
2022/10/27 05:20:55;;;;;;;0.00;0.00;;;10.80;99.90;;;;;;5073286;28;20217;-79
2022/10/27 05:23:20;;;;;;;0.10;0.10;;;10.90;99.90;;;;;;5062855;28;20237;-79
2022/10/27 05:25:53;;;;;;;0.10;0.10;;;10.90;99.90;;;;;;5066142;28;20703;-79
2022/10/27 05:28:19;;;;;;;0.10;0.10;;;10.90;99.90;;;;;;5064140;28;20581;-79
2022/10/27 05:30:45;;;;;;;0.10;0.10;;;11.00;99.90;;;;;;5062473;28;20188;-79
2022/10/27 05:33:11;;;;;;;0.10;0.10;;;11.10;99.90;;;;;;5062244;28;20204;-79
2022/10/27 05:35:36;;;;;;;0.10;0.10;;;11.10;99.90;;;;;;5064212;28;20188;-79
2022/10/27 05:38:02;;;;;;;0.10;0.10;;;11.10;99.90;;;;;;5063221;28;20203;-79
2022/10/27 05:40:33;;;;;;;0.00;0.00;;;11.10;99.90;;;;;;5064029;28;20211;-79
2022/10/27 05:42:59;;;;;;;0.00;0.00;;;11.10;99.90;;;;;;5064779;28;20193;-79
2022/10/27 05:45:25;;;;;;;0.10;0.10;;;10.80;99.90;;;;;;5064366;28;20646;-79
2022/10/27 05:48:08;;;;;;;0.10;0.10;;;10.70;99.90;;;;;;5064587;28;20200;-79
2022/10/27 05:50:34;;;;;;;0.10;0.10;;;10.70;99.90;;;;;;5062392;28;20191;-81
2022/10/27 05:53:00;;;;;;;0.10;0.10;;;10.70;99.90;;;;;;5062848;28;20220;-80
2022/10/27 05:55:26;;;;;;;0.10;0.10;;;10.80;99.90;;;;;;5065815;28;20199;-80
2022/10/27 05:58:03;;;;;;;0.00;0.00;;;10.80;99.90;;;;;;5065524;28;20200;-80
2022/10/27 06:00:31;;;;;;;0.10;0.10;;;10.90;99.90;;;;;;5074063;28;20598;-80
2022/10/27 06:02:58;;;;;;;0.00;0.00;;;10.70;99.90;;;;;;5065787;28;20229;-80
2022/10/27 06:05:25;;;;;;;0.10;0.10;;;10.80;99.90;;;;;;5065501;28;20310;-80
2022/10/27 06:07:50;;;;;;;0.10;0.10;;;10.80;99.90;;;;;;5082085;28;20184;-80
2022/10/27 06:10:16;;;;;;;0.10;0.10;;;10.90;99.90;;;;;;5065860;28;20196;-80
2022/10/27 06:12:42;;;;;;;0.00;0.00;;;10.90;99.90;;;;;;5064898;28;20209;-80
2022/10/27 06:15:08;;;;;;;0.10;0.10;;;11.00;99.90;;;;;;5066865;28;20326;-80
2022/10/27 06:17:33;;;;;;;0.10;0.10;;;11.10;99.90;;;;;;5064754;28;20212;-80
2022/10/27 06:19:59;;;;;;;0.10;0.10;;;11.10;99.90;;;;;;5062754;28;20188;-79
2022/10/27 06:22:25;;;;;;;0.10;0.10;;;11.10;99.90;;;;;;5064031;28;20303;-80
2022/10/27 06:24:50;;;;;;;0.10;0.10;;;11.20;99.90;;;;;;5064299;28;20297;-81
2022/10/27 06:27:16;;;;;;;0.10;0.10;;;11.30;99.90;;;;;;5062381;28;20208;-80
2022/10/27 06:29:41;;;;;;;0.10;0.10;;;11.40;99.90;;;;;;5064527;28;21136;-81
2022/10/27 06:32:07;;;;;;;0.10;0.10;;;11.40;99.90;;;;;;5079722;28;21404;-81
2022/10/27 06:34:32;;;;;;;0.00;0.00;;;11.50;99.90;;;;;;5054342;28;20205;-81
2022/10/27 06:36:58;;;;;;;0.00;0.00;;;11.50;99.90;;;;;;5062676;28;20215;-81
2022/10/27 06:39:23;;;;;;;0.03;0.03;;;11.60;99.90;;;;;;5063155;28;20724;-81
2022/10/27 06:41:49;;;;;;;0.07;0.07;;;11.60;99.90;;;;;;5068484;28;20215;-81
2022/10/27 06:44:14;;;;;;;0.10;0.10;;;11.60;99.90;;;;;;5068620;28;20262;-81
2022/10/27 06:46:40;;;;;;;0.10;0.10;;;11.70;99.90;;;;;;5068076;28;20249;-82
2022/10/27 06:49:06;;;;;;;0.10;0.10;;;11.80;99.90;;;;;;5067782;28;20191;-82
2022/10/27 06:51:31;;;;;;;0.10;0.10;;;11.80;99.90;;;;;;5070718;28;20191;-81
2022/10/27 06:53:57;;;;;;;0.00;0.00;;;11.80;99.90;;;;;;5068599;28;20539;-81
2022/10/27 06:56:23;;;;;;;0.03;0.03;;;11.80;99.90;;;;;;5067774;28;20189;-81
2022/10/27 06:58:49;;;;;;;0.10;0.10;;;11.90;99.90;;;;;;5069492;28;20193;-81
2022/10/27 07:01:14;;;;;;;0.00;0.00;;;11.90;99.90;;;;;;5062934;28;20212;-80
2022/10/27 07:03:40;;;;;;;0.10;0.10;;;12.00;99.90;;;;;;5058153;28;20238;-80
2022/10/27 07:06:06;;;;;;;0.10;0.10;;;12.10;99.90;;;;;;5065927;28;20256;-80
2022/10/27 07:08:32;;;;;;;0.10;0.10;;;12.20;99.90;;;;;;5065945;28;20185;-80
2022/10/27 07:10:58;;;;;;;0.10;0.10;;;12.30;99.90;;;;;;5067541;28;20216;-80
2022/10/27 07:13:23;;;;;;;0.10;0.10;;;12.40;99.90;;;;;;5066647;28;20209;-80
2022/10/27 07:15:49;;;;;;;0.00;0.00;;;12.50;99.90;;;;;;5065881;28;20225;-80
2022/10/27 07:18:15;;;;;;;0.10;0.10;;;12.70;99.90;;;;;;5069071;28;20185;-80
2022/10/27 07:20:44;;;;;;;0.10;0.10;;;12.90;99.90;;;;;;5067834;28;20315;-80
2022/10/27 07:23:10;;;;;;;0.10;0.10;;;13.00;99.90;;;;;;5064660;28;20212;-81
2022/10/27 07:25:36;;;;;;;0.10;0.10;;;13.10;99.90;;;;;;5065000;28;20180;-80
2022/10/27 07:28:04;;;;;;;0.10;0.10;;;13.20;99.90;;;;;;5068535;28;20235;-80
2022/10/27 07:30:33;;;;;;;0.00;0.00;;;13.40;99.90;;;;;;5065344;28;20189;-81
2022/10/27 07:32:58;;;;;;;0.10;0.10;;;13.50;99.90;;;;;;5067294;28;21129;-81
2022/10/27 07:35:24;;;;;;;0.10;0.10;;;13.60;99.90;;;;;;5066294;28;20181;-79
2022/10/27 07:37:50;;;;;;;0.03;0.03;;;13.80;99.90;;;;;;5066991;28;20190;-78
2022/10/27 07:40:18;;;;;;;0.10;0.10;;;13.80;99.90;;;;;;5065862;28;20666;-78
2022/10/27 07:42:45;;;;;;;0.10;0.10;;;14.00;99.90;;;;;;5063963;28;20205;-78
2022/10/27 07:45:12;;;;;;;0.10;0.10;;;14.10;99.90;;;;;;5079675;28;20205;-78
2022/10/27 07:47:42;;;;;;;0.10;0.10;;;14.20;99.90;;;;;;5064340;28;20185;-79
2022/10/27 07:50:08;;;;;;;0.00;0.00;;;14.40;99.90;;;;;;5063903;28;20550;-79
2022/10/27 07:52:40;;;;;;;0.10;0.10;;;14.40;99.90;;;;;;5064490;28;20221;-78
2022/10/27 07:55:06;;;;;;;0.10;0.10;;;14.50;99.90;;;;;;5079750;28;20445;-78
2022/10/27 07:57:32;;;;;;;0.10;0.10;;;14.60;99.90;;;;;;5065464;28;20674;-78
2022/10/27 07:59:58;;;;;;;0.10;0.10;;;14.60;99.90;;;;;;5061510;28;21308;-79
2022/10/27 08:02:23;;;;;;;0.10;0.10;;;14.40;99.90;;;;;;5061096;28;20211;-79
2022/10/27 08:04:49;;;;;;;0.10;0.10;;;14.20;99.90;;;;;;5067748;28;20222;-78
2022/10/27 08:07:14;;;;;;;0.10;0.10;;;14.10;99.90;;;;;;5060057;28;20209;-78
2022/10/27 08:09:40;;;;;;;0.10;0.10;;;14.10;99.90;;;;;;5060903;28;20276;-78
2022/10/27 08:12:06;;;;;;;0.10;0.10;;;14.10;99.90;;;;;;5060880;28;20200;-79
2022/10/27 08:14:32;;;;;;;0.10;0.10;;;14.30;99.90;;;;;;5062194;28;20182;-78
2022/10/27 08:16:57;;;;;;;0.10;0.10;;;14.50;99.90;;;;;;5060696;28;20204;-79
2022/10/27 08:19:23;;;;;;;0.10;0.10;;;14.70;99.90;;;;;;5064367;28;20555;-78
2022/10/27 08:21:49;;;;;;;0.10;0.10;;;14.90;99.90;;;;;;5064170;28;20205;-79
2022/10/27 08:24:14;;;;;;;0.10;0.10;;;15.10;99.90;;;;;;5061776;28;20225;-78
2022/10/27 08:26:40;;;;;;;0.10;0.10;;;15.10;99.90;;;;;;5064426;28;20643;-78
2022/10/27 08:29:06;;;;;;;0.10;0.10;;;15.10;99.90;;;;;;5062610;28;20180;-79
2022/10/27 08:31:31;;;;;;;0.10;0.10;;;15.00;99.90;;;;;;5068535;28;20179;-80
2022/10/27 08:33:57;;;;;;;0.10;0.10;;;15.10;99.90;;;;;;5060751;28;20305;-78
2022/10/27 08:36:22;;;;;;;0.10;0.10;;;15.30;99.90;;;;;;5061361;28;20182;-79
2022/10/27 08:38:48;;;;;;;0.10;0.10;;;15.40;99.90;;;;;;5063832;28;20207;-78
2022/10/27 08:41:33;;;;;;;0.10;0.10;;;15.60;99.90;;;;;;5063520;28;20188;-78
2022/10/27 08:43:58;;;;;;;0.10;0.10;;;15.60;99.90;;;;;;5063249;28;20211;-79
2022/10/27 08:46:43;;;;;;;0.10;0.10;;;15.80;99.90;;;;;;5073331;28;20183;-80
2022/10/27 08:49:31;;;;;;;0.10;0.10;;;15.90;99.90;;;;;;5071109;28;20615;-79
2022/10/27 08:52:19;;;;;;;0.10;0.10;;;16.20;99.90;;;;;;5072291;28;20210;-79
2022/10/27 08:54:50;;;;;;;0.10;0.10;;;16.40;99.90;;;;;;5073633;28;20191;-79
2022/10/27 08:57:24;;;;;;;0.10;0.10;;;16.70;99.90;;;;;;5072541;28;20259;-79
2022/10/27 08:59:54;;;;;;;0.10;0.10;;;16.80;99.90;;;;;;5062419;28;20197;-79
2022/10/27 09:02:35;;;;;;;0.10;0.10;;;17.00;99.90;;;;;;5061554;28;20211;-79
2022/10/27 09:05:15;;;;;;;0.10;0.10;;;17.10;99.90;;;;;;5063438;28;20246;-79
2022/10/27 09:07:51;;;;;;;0.10;0.10;;;17.20;99.90;;;;;;5061048;28;20263;-81
2022/10/27 09:10:48;;;;;;;0.10;0.10;;;17.20;99.90;;;;;;5065529;28;20199;-81
2022/10/27 09:13:42;;;;;;;0.10;0.10;;;17.30;99.90;;;;;;5076990;28;20204;-81
2022/10/27 09:16:15;;;;;;;0.10;0.10;;;17.30;99.90;;;;;;5061785;28;20193;-81
2022/10/27 09:18:54;;;;;;;0.10;0.10;;;17.20;99.90;;;;;;5076107;28;20240;-83
2022/10/27 09:21:22;;;;;;;0.10;0.10;;;17.30;99.90;;;;;;5081433;28;20181;-82
2022/10/27 09:23:58;;;;;;;0.10;0.10;;;17.20;99.90;;;;;;5062238;28;20240;-83
2022/10/27 09:26:32;;;;;;;0.10;0.10;;;17.00;99.90;;;;;;5064038;28;21288;-80
2022/10/27 09:29:02;;;;;;;0.10;0.10;;;17.00;99.90;;;;;;5064543;28;20188;-80
2022/10/27 09:31:50;;;;;;;0.10;0.10;;;17.30;99.90;;;;;;5066281;28;20650;-81
2022/10/27 09:34:32;;;;;;;0.10;0.10;;;17.30;99.90;;;;;;5074640;28;20197;-81
2022/10/27 09:36:58;;;;;;;0.10;0.10;;;17.50;99.90;;;;;;5067516;28;20197;-81
2022/10/27 09:39:24;;;;;;;0.10;0.10;;;17.60;99.90;;;;;;5057360;28;20197;-80
2022/10/27 09:41:49;;;;;;;0.10;0.10;;;17.60;99.90;;;;;;5058835;28;20213;-81
2022/10/27 09:44:23;;;;;;;0.10;0.10;;;17.60;99.90;;;;;;5064704;28;20327;-81
2022/10/27 09:46:57;;;;;;;0.10;0.10;;;17.50;99.90;;;;;;5083388;28;20180;-80
2022/10/27 09:49:44;;;;;;;0.10;0.10;;;17.40;99.90;;;;;;5082831;28;20966;-81
2022/10/27 09:52:23;;;;;;;0.10;0.10;;;17.50;99.90;;;;;;5074655;28;20247;-82
2022/10/27 09:54:56;;;;;;;0.10;0.10;;;17.70;99.90;;;;;;5066997;28;20650;-82
2022/10/27 09:57:28;;;;;;;0.10;0.10;;;17.80;99.90;;;;;;5066466;28;20184;-81
2022/10/27 09:59:59;;;;;;;0.10;0.10;;;18.00;99.90;;;;;;5067468;28;20215;-81
2022/10/27 10:02:31;;;;;;;0.10;0.10;;;18.10;99.90;;;;;;5067205;28;20291;-81
2022/10/27 10:04:57;;;;;;;0.10;0.10;;;18.20;99.90;;;;;;5065623;28;20208;-81
2022/10/27 10:07:43;;;;;;;0.10;0.10;;;18.30;99.90;;;;;;5064533;28;20187;-81
2022/10/27 10:10:31;;;;;;;0.10;0.10;;;18.40;99.90;;;;;;5069028;28;20173;-81
2022/10/27 10:13:03;;;;;;;0.10;0.10;;;18.40;99.90;;;;;;5066944;28;20197;-81
2022/10/27 10:15:32;;;;;;;0.10;0.10;;;18.60;99.90;;;;;;5075403;28;20188;-80
2022/10/27 10:18:02;;;;;;;0.10;0.10;;;18.90;99.90;;;;;;5065352;28;20195;-82
2022/10/27 10:20:35;;;;;;;0.10;0.10;;;19.10;99.90;;;;;;5075419;28;20189;-82
2022/10/27 10:23:05;;;;;;;0.10;0.10;;;19.10;99.90;;;;;;5066132;28;20252;-82
2022/10/27 10:25:32;;;;;;;0.10;0.10;;;19.30;99.90;;;;;;5083820;28;20192;-82
2022/10/27 10:28:03;;;;;;;0.10;0.10;;;19.40;99.90;;;;;;5068532;28;20181;-82
2022/10/27 10:30:34;;;;;;;0.10;0.10;;;19.60;99.90;;;;;;5067114;28;20249;-82
2022/10/27 10:33:03;;;;;;;0.10;0.10;;;19.50;99.90;;;;;;5063770;28;20197;-82
2022/10/27 10:35:48;;;;;;;0.20;0.20;;;18.80;99.90;;;;;;5068389;28;20252;-82
2022/10/27 10:38:23;;;;;;;0.10;0.10;;;19.00;99.90;;;;;;5065230;28;20173;-81
2022/10/27 10:41:11;;;;;;;0.10;0.10;;;19.30;99.90;;;;;;5068530;28;20179;-82
2022/10/27 10:43:37;;;;;;;0.10;0.10;;;19.00;99.90;;;;;;5065509;28;20274;-82
2022/10/27 10:46:04;;;;;;;0.10;0.10;;;19.40;99.90;;;;;;5067575;28;20971;-82
2022/10/27 10:48:47;;;;;;;0.10;0.10;;;19.70;99.90;;;;;;5065357;28;20182;-82
2022/10/27 10:51:24;;;;;;;0.10;0.10;;;19.80;99.90;;;;;;5068411;28;20980;-82
2022/10/27 10:53:52;;;;;;;0.10;0.10;;;19.60;99.90;;;;;;5066432;28;20192;-82
2022/10/27 10:56:24;;;;;;;0.10;0.10;;;19.90;99.90;;;;;;5067485;28;20188;-82
2022/10/27 10:59:13;;;;;;;0.10;0.10;;;20.10;99.90;;;;;;5066175;28;20258;-81
2022/10/27 11:02:01;;;;;;;0.10;0.10;;;20.20;99.90;;;;;;5082170;28;20227;-82
2022/10/27 11:04:30;;;;;;;0.10;0.10;;;20.30;99.90;;;;;;5075585;28;20610;-82
2022/10/27 11:06:56;;;;;;;0.10;0.10;;;20.30;99.90;;;;;;5065452;28;20192;-82
2022/10/27 11:09:25;;;;;;;0.10;0.10;;;20.40;99.90;;;;;;5075902;28;20655;-82
2022/10/27 11:11:52;;;;;;;0.10;0.10;;;20.50;99.90;;;;;;5064147;28;20281;-82
2022/10/27 11:14:18;;;;;;;0.10;0.10;;;20.60;99.90;;;;;;5064210;28;20212;-83
2022/10/27 11:16:51;;;;;;;0.10;0.10;;;20.70;99.90;;;;;;5067973;28;20551;-82
2022/10/27 11:19:19;;;;;;;0.10;0.10;;;20.80;99.90;;;;;;5066383;28;20214;-82
2022/10/27 11:22:03;;;;;;;0.10;0.10;;;20.60;99.90;;;;;;5081743;28;20212;-82
2022/10/27 11:25:04;;;;;;;0.10;0.10;;;20.70;99.90;;;;;;5065587;28;20197;-82
2022/10/27 11:27:42;;;;;;;0.10;0.10;;;20.70;99.90;;;;;;5074254;28;20193;-82
2022/10/27 11:30:10;;;;;;;0.10;0.10;;;20.50;99.90;;;;;;5066007;28;20197;-80
2022/10/27 11:32:55;;;;;;;0.10;0.10;;;20.50;99.90;;;;;;5071625;28;20789;-80
2022/10/27 11:35:40;;;;;;;0.10;0.10;;;20.60;99.90;;;;;;5064100;28;20185;-83
2022/10/27 11:38:17;;;;;;;0.10;0.10;;;20.60;99.90;;;;;;5064761;28;20193;-79
2022/10/27 11:40:49;;;;;;;0.10;0.10;;;20.70;99.90;;;;;;5058302;28;20192;-79
2022/10/27 11:43:30;;;;;;;0.10;0.10;;;20.70;99.90;;;;;;5062118;28;20213;-80
2022/10/27 11:46:14;;;;;;;0.10;0.10;;;20.90;99.90;;;;;;5072497;28;20181;-80
2022/10/27 11:48:47;;;;;;;0.10;0.10;;;20.80;99.90;;;;;;5073029;28;20177;-80
2022/10/27 11:51:23;;;;;;;0.10;0.10;;;21.00;99.90;;;;;;5065146;28;20173;-80
2022/10/27 11:53:52;;;;;;;0.10;0.10;;;21.10;99.90;;;;;;5057274;28;20287;-80
2022/10/27 11:56:57;;;;;;;0.10;0.10;;;21.10;99.90;;;;;;5070092;28;20220;-80
2022/10/27 11:59:52;;;;;;;0.10;0.10;;;21.10;99.90;;;;;;5019548;28;20194;-80
2022/10/27 12:02:24;;;;;;;0.10;0.10;;;21.20;99.90;;;;;;5060476;28;20211;-80
2022/10/27 12:04:57;;;;;;;0.10;0.10;;;21.20;99.90;;;;;;5063834;28;20662;-80
2022/10/27 12:08:05;;;;;;;0.10;0.10;;;21.20;99.90;;;;;;5070862;28;20657;-80
2022/10/27 12:11:03;;;;;;;0.10;0.10;;;21.20;99.90;;;;;;5064802;28;20197;-80
2022/10/27 12:13:32;;;;;;;0.10;0.10;;;21.20;99.90;;;;;;5059360;28;20216;-80
2022/10/27 12:16:24;;;;;;;0.10;0.10;;;21.10;99.90;;;;;;5069955;28;20181;-80
2022/10/27 12:18:54;;;;;;;0.10;0.10;;;20.90;99.90;;;;;;5073586;28;20223;-80
2022/10/27 12:21:46;;;;;;;0.10;0.10;;;20.90;99.90;;;;;;5075509;28;20308;-80
2022/10/27 12:24:31;;;;;;;0.10;0.10;;;20.60;99.90;;;;;;5059337;28;20244;-80
2022/10/27 12:27:01;;;;;;;0.10;0.10;;;20.70;99.90;;;;;;5059650;28;20177;-80
2022/10/27 12:29:32;;;;;;;0.10;0.10;;;20.70;99.90;;;;;;5060547;28;20185;-80
2022/10/27 12:32:05;;;;;;;0.10;0.10;;;20.60;99.90;;;;;;5063008;28;20235;-80
2022/10/27 12:34:37;;;;;;;0.10;0.10;;;20.90;99.90;;;;;;5060661;28;20216;-80
2022/10/27 12:37:32;;;;;;;0.10;0.10;;;21.00;99.90;;;;;;5072627;28;20192;-81
2022/10/27 12:40:26;;;;;;;0.10;0.10;;;21.00;99.90;;;;;;5059088;28;20185;-80
2022/10/27 12:42:58;;;;;;;0.10;0.10;;;21.10;99.90;;;;;;5068955;28;20205;-79
2022/10/27 12:45:49;;;;;;;0.07;0.07;;;21.30;99.90;;;;;;5063273;28;20209;-80
2022/10/27 12:48:42;;;;;;;0.10;0.10;;;21.40;99.90;;;;;;5060495;28;20195;-80
2022/10/27 12:51:13;;;;;;;0.10;0.10;;;21.30;99.90;;;;;;5060325;28;20180;-80
2022/10/27 12:53:44;;;;;;;0.10;0.10;;;21.40;99.90;;;;;;5060624;28;20341;-80
2022/10/27 12:56:15;;;;;;;0.10;0.10;;;21.40;99.90;;;;;;5065061;28;20223;-80
2022/10/27 12:59:07;;;;;;;0.10;0.10;;;21.40;99.90;;;;;;5070687;28;20192;-80
2022/10/27 13:01:57;;;;;;;0.10;0.10;;;21.50;99.90;;;;;;5060693;28;20195;-80
2022/10/27 13:04:28;;;;;;;0.10;0.10;;;21.30;99.90;;;;;;5061099;28;20224;-80
2022/10/27 13:06:54;;;;;;;0.10;0.10;;;21.10;99.90;;;;;;5069883;28;20177;-80
2022/10/27 13:09:28;;;;;;;0.10;0.10;;;21.20;99.90;;;;;;5072811;28;20556;-80